Time;durP1;ratioP1;P1;durP2;ratioP2;P2;SDS_P1;SDS_P2;PMS_P1;PMS_P2;Temp;Humidity;BMP_temperature;BMP_pressure;BME280_temperature;BME280_humidity;BME280_pressure;Samples;Min_cycle;Max_cycle;Signal;HPM_P1;HPM_P2
2022/04/20 00:00:08;;;;;;;22.65;8.15;;;;;;;21.41;37.43;101523.97;4171528;28;20100;-61
2022/04/20 00:02:09;;;;;;;27.85;7.95;;;;;;;21.47;37.00;101545.16;4165285;28;20107;-61
2022/04/20 00:04:11;;;;;;;25.65;7.80;;;;;;;21.47;37.28;101534.84;4165657;28;20030;-61
2022/04/20 00:06:13;;;;;;;25.65;6.68;;;;;;;21.34;37.12;101517.78;4164841;28;20091;-61
2022/04/20 00:08:14;;;;;;;25.17;7.40;;;;;;;21.47;37.19;101536.81;4165431;28;20443;-61
2022/04/20 00:10:15;;;;;;;32.17;6.93;;;;;;;21.49;37.07;101542.97;4165783;28;20041;-61
2022/04/20 00:12:17;;;;;;;26.80;7.28;;;;;;;21.48;36.89;101549.63;4165380;28;20037;-61
2022/04/20 00:14:18;;;;;;;30.35;7.05;;;;;;;21.45;37.17;101536.25;4166047;28;20099;-61
2022/04/20 00:16:20;;;;;;;18.58;6.43;;;;;;;21.51;37.27;101554.66;4165322;28;20099;-62
2022/04/20 00:18:22;;;;;;;18.75;6.30;;;;;;;21.47;36.92;101551.56;4165291;28;20485;-61
2022/04/20 00:20:26;;;;;;;19.33;7.00;;;;;;;21.40;37.29;101542.63;4165159;28;20103;-61
2022/04/20 00:22:27;;;;;;;26.33;7.03;;;;;;;21.36;36.94;101547.06;4164995;28;20137;-61
2022/04/20 00:24:28;;;;;;;16.83;6.07;;;;;;;21.50;36.94;101572.47;4164694;28;20037;-62
2022/04/20 00:26:30;;;;;;;23.33;6.45;;;;;;;21.51;36.97;101579.72;4165119;28;20041;-62
2022/04/20 00:28:31;;;;;;;23.70;6.05;;;;;;;21.39;36.99;101565.16;4164891;28;20045;-61
2022/04/20 00:30:41;;;;;;;21.70;5.68;;;;;;;21.51;37.11;101585.28;4164858;28;20034;-61
2022/04/20 00:32:42;;;;;;;24.45;6.28;;;;;;;21.50;36.77;101589.19;4165161;28;20084;-61
2022/04/20 00:34:46;;;;;;;18.65;6.10;;;;;;;21.48;36.84;101588.59;4164534;28;20069;-61
2022/04/20 00:36:52;;;;;;;20.83;6.22;;;;;;;21.52;37.10;101592.53;4164635;28;20045;-61
2022/04/20 00:38:58;;;;;;;22.73;5.93;;;;;;;21.52;36.89;101595.31;4165439;28;20045;-62
2022/04/20 00:41:00;;;;;;;17.67;5.05;;;;;;;21.43;36.92;101578.25;4165143;28;20106;-62
2022/04/20 00:43:01;;;;;;;14.82;5.15;;;;;;;21.52;36.72;101598.09;4164547;28;20107;-62
2022/04/20 00:45:03;;;;;;;17.80;5.10;;;;;;;21.51;37.07;101613.97;4164847;28;20037;-62
2022/04/20 00:47:06;;;;;;;14.45;5.13;;;;;;;21.52;37.21;101612.84;4164485;28;20538;-61
2022/04/20 00:49:09;;;;;;;16.75;5.88;;;;;;;21.52;36.92;101631.50;4164912;28;20041;-60
2022/04/20 00:51:11;;;;;;;14.60;4.45;;;;;;;21.52;36.89;101637.06;4164741;28;20095;-61
2022/04/20 00:53:12;;;;;;;13.13;4.45;;;;;;;21.52;36.89;101648.22;4164830;28;20038;-61
2022/04/20 00:55:16;;;;;;;13.77;5.03;;;;;;;21.51;36.78;101646.53;4164161;28;20118;-61
2022/04/20 00:57:20;;;;;;;12.87;4.33;;;;;;;21.51;36.77;101652.13;4165003;28;20550;-61
2022/04/20 00:59:30;;;;;;;11.93;4.47;;;;;;;21.52;36.78;101648.22;4164896;28;20091;-61
2022/04/20 01:01:31;;;;;;;14.02;4.70;;;;;;;21.51;36.73;101652.13;4164846;28;20103;-61
2022/04/20 01:03:33;;;;;;;16.08;4.63;;;;;;;21.52;37.01;101659.34;4165102;28;20547;-60
2022/04/20 01:05:34;;;;;;;15.45;5.63;;;;;;;21.51;36.97;101669.66;4164031;28;20038;-61
2022/04/20 01:07:40;;;;;;;14.63;4.38;;;;;;;21.51;37.00;101672.44;4164431;28;20042;-61
2022/04/20 01:09:42;;;;;;;12.15;4.32;;;;;;;21.38;36.74;101658.13;4164355;28;20530;-61
2022/04/20 01:11:44;;;;;;;10.65;4.10;;;;;;;21.45;36.91;101669.91;4164162;28;20063;-61
2022/04/20 01:13:45;;;;;;;14.30;4.25;;;;;;;21.48;37.15;101681.31;4163209;28;20048;-60
2022/04/20 01:15:47;;;;;;;13.30;4.03;;;;;;;21.52;36.76;101690.00;4164229;28;20037;-61
2022/04/20 01:17:51;;;;;;;11.18;3.55;;;;;;;21.52;36.84;101695.56;4164399;28;20045;-60
2022/04/20 01:19:55;;;;;;;9.73;3.67;;;;;;;21.52;37.08;101706.69;4164627;28;20455;-61
2022/04/20 01:21:56;;;;;;;8.73;4.05;;;;;;;21.52;37.17;101701.13;4164295;28;20556;-60
2022/04/20 01:24:00;;;;;;;11.82;4.10;;;;;;;21.52;37.01;101715.06;4164739;28;20126;-61
2022/04/20 01:26:06;;;;;;;13.97;4.10;;;;;;;21.42;37.21;101698.28;4163937;28;20049;-61
2022/04/20 01:28:08;;;;;;;10.60;3.90;;;;;;;21.51;37.30;101714.22;4164244;28;20045;-63
2022/04/20 01:30:10;;;;;;;10.10;3.88;;;;;;;21.37;37.20;101696.28;4164366;28;20090;-61
2022/04/20 01:32:11;;;;;;;13.10;4.32;;;;;;;21.52;37.09;101717.84;4164238;28;20042;-62
2022/04/20 01:34:15;;;;;;;7.55;3.33;;;;;;;21.51;37.02;101718.94;4165020;28;20076;-61
2022/04/20 01:36:19;;;;;;;7.28;3.58;;;;;;;21.44;37.00;101721.97;4164524;28;20374;-60
2022/04/20 01:38:21;;;;;;;12.38;3.42;;;;;;;21.52;37.19;101737.34;4164196;28;20480;-60
2022/04/20 01:40:23;;;;;;;13.88;3.42;;;;;;;21.51;37.19;101742.06;4164562;28;20041;-62
2022/04/20 01:42:24;;;;;;;7.22;3.38;;;;;;;21.52;36.89;101737.34;4166188;28;20072;-61
2022/04/20 01:44:25;;;;;;;10.38;3.10;;;;;;;21.53;37.14;101739.00;4169901;28;20096;-61
2022/04/20 01:46:30;;;;;;;9.73;3.55;;;;;;;21.53;37.09;101744.56;4178994;28;20037;-61
2022/04/20 01:48:38;;;;;;;10.52;3.03;;;;;;;21.53;37.29;101744.56;4175389;28;20037;-61
2022/04/20 01:51:46;;;;;;;13.30;3.10;;;;;;;21.52;36.96;101749.31;4171029;28;20075;-61
2022/04/20 01:53:01;;;;;;;11.23;3.47;;;;;;;21.46;37.17;101732.84;4178274;28;20075;-62
2022/04/20 01:55:03;;;;;;;8.07;3.08;;;;;;;21.55;37.27;101747.94;4180359;28;20129;-61
2022/04/20 01:57:05;;;;;;;9.30;3.05;;;;;;;21.56;37.16;101755.19;4167502;28;20037;-60
2022/04/20 01:59:07;;;;;;;8.60;3.03;;;;;;;21.54;36.96;101763.00;4180645;28;20103;-60
2022/04/20 02:03:28;;;;;;;10.73;3.50;;;;;;;21.53;37.14;101776.06;4168653;28;20084;-61
2022/04/20 02:05:29;;;;;;;8.45;3.15;;;;;;;21.47;37.40;101762.34;4171653;28;20033;-62
2022/04/20 02:07:31;;;;;;;10.77;3.58;;;;;;;21.52;37.49;101770.75;4167589;28;20546;-61
2022/04/20 02:09:34;;;;;;;12.15;3.33;;;;;;;21.52;37.52;101776.31;4167859;28;20451;-62
2022/04/20 02:11:36;;;;;;;8.63;2.95;;;;;;;21.49;37.57;101772.13;4167252;28;20041;-61
2022/04/20 02:13:37;;;;;;;9.65;3.63;;;;;;;21.50;37.31;101773.81;4167246;28;20095;-61
2022/04/20 02:15:41;;;;;;;10.60;3.15;;;;;;;21.49;37.28;101782.44;4174527;28;20083;-61
2022/04/20 02:17:43;;;;;;;7.70;3.45;;;;;;;21.50;37.34;101784.13;4182733;28;20095;-61
2022/04/20 02:19:44;;;;;;;13.88;3.10;;;;;;;21.50;37.64;101787.72;4183952;28;20098;-61
2022/04/20 02:21:46;;;;;;;12.55;3.55;;;;;;;21.50;37.64;101789.69;4185197;28;20045;-61
2022/04/20 02:23:47;;;;;;;14.68;3.88;;;;;;;21.47;37.74;101781.84;4183910;28;20028;-61
2022/04/20 02:25:48;;;;;;;11.50;3.38;;;;;;;21.50;37.64;101789.69;4183254;28;20076;-61
2022/04/20 02:27:56;;;;;;;11.15;3.22;;;;;;;21.44;37.65;101774.00;4183454;28;20126;-61
2022/04/20 02:29:57;;;;;;;14.48;3.20;;;;;;;21.50;37.66;101795.25;4183253;28;20037;-61
2022/04/20 02:31:59;;;;;;;13.65;3.00;;;;;;;21.50;37.31;101795.25;4170899;28;20477;-61
2022/04/20 02:34:00;;;;;;;12.98;2.97;;;;;;;21.49;37.26;101796.38;4173450;28;20188;-63
2022/04/20 02:36:05;;;;;;;7.88;2.67;;;;;;;21.44;37.28;101797.16;4183304;28;20119;-61
2022/04/20 02:38:11;;;;;;;13.38;3.55;;;;;;;21.35;37.59;101778.38;4182833;28;20450;-61
2022/04/20 02:40:15;;;;;;;14.80;2.97;;;;;;;21.47;37.49;101807.75;4183670;28;20032;-61
2022/04/20 02:42:17;;;;;;;9.55;3.05;;;;;;;21.35;37.35;101786.72;4182536;28;20182;-61
2022/04/20 02:44:22;;;;;;;8.65;2.85;;;;;;;21.39;37.20;101794.28;4183120;28;20037;-61
2022/04/20 02:46:29;;;;;;;6.95;2.33;;;;;;;21.47;37.63;101812.47;4182958;28;20083;-61
2022/04/20 02:48:31;;;;;;;10.05;2.58;;;;;;;21.45;37.38;101809.13;4174181;28;20103;-61
2022/04/20 02:50:32;;;;;;;10.45;3.10;;;;;;;21.46;37.34;101813.59;4172426;28;20118;-61
2022/04/20 02:52:33;;;;;;;11.52;2.65;;;;;;;21.46;37.32;101821.94;4182761;28;20107;-61
2022/04/20 02:54:35;;;;;;;18.88;3.17;;;;;;;21.46;37.52;101822.78;4181354;28;20040;-61
2022/04/20 02:56:36;;;;;;;12.45;2.80;;;;;;;21.44;37.33;101813.88;4181150;28;20036;-61
2022/04/20 02:58:37;;;;;;;10.98;2.50;;;;;;;21.34;37.36;101805.38;4183078;28;20094;-61
2022/04/20 03:00:39;;;;;;;10.13;2.72;;;;;;;21.46;37.57;101821.94;4182391;28;20435;-61
2022/04/20 03:02:40;;;;;;;7.25;2.30;;;;;;;21.45;37.53;101828.63;4183189;28;20071;-61
2022/04/20 03:04:42;;;;;;;8.57;2.42;;;;;;;21.37;37.41;101813.22;4182952;28;20538;-61
2022/04/20 03:06:43;;;;;;;6.85;2.40;;;;;;;21.45;37.40;101834.19;4182376;28;20083;-61
2022/04/20 03:08:46;;;;;;;8.75;2.88;;;;;;;21.29;37.47;101805.31;4166792;28;20049;-60
2022/04/20 03:10:48;;;;;;;7.57;2.53;;;;;;;21.46;37.27;101841.44;4166690;28;20524;-61
2022/04/20 03:12:49;;;;;;;7.80;2.38;;;;;;;21.46;37.28;101844.22;4166877;28;20087;-60
2022/04/20 03:14:54;;;;;;;8.70;2.40;;;;;;;21.42;37.17;101843.91;4165933;28;20068;-61
2022/04/20 03:16:58;;;;;;;5.22;1.90;;;;;;;21.44;37.45;101840.84;4166129;28;20037;-61
2022/04/20 03:19:00;;;;;;;6.82;2.20;;;;;;;21.44;37.05;101838.06;4167019;28;20099;-61
2022/04/20 03:21:01;;;;;;;7.60;2.22;;;;;;;21.42;37.15;101854.19;4170338;28;20573;-61
2022/04/20 03:23:03;;;;;;;7.70;2.20;;;;;;;21.38;36.88;101847.47;4165783;28;20050;-61
2022/04/20 03:25:05;;;;;;;8.90;2.40;;;;;;;21.40;36.99;101851.69;4166483;28;20087;-61
2022/04/20 03:27:07;;;;;;;6.28;1.90;;;;;;;21.43;36.92;101867.00;4165266;28;20432;-60
2022/04/20 03:29:08;;;;;;;9.65;2.15;;;;;;;21.40;36.87;101862.81;4166395;28;20095;-60
2022/04/20 03:31:09;;;;;;;6.43;2.20;;;;;;;21.41;36.79;101858.09;4166259;28;20034;-61
2022/04/20 03:33:11;;;;;;;6.43;2.03;;;;;;;21.41;36.86;101874.81;4166050;28;20041;-60
2022/04/20 03:35:17;;;;;;;2.47;1.92;;;;;;;21.40;36.77;101871.19;4166025;28;20045;-60
2022/04/20 03:37:19;;;;;;;6.18;1.92;;;;;;;21.37;36.51;101874.47;4166018;28;20038;-60
2022/04/20 03:39:20;;;;;;;8.10;2.55;;;;;;;21.38;36.92;101876.16;4166126;28;20111;-60
2022/04/20 03:41:24;;;;;;;12.48;2.38;;;;;;;21.38;36.79;101881.72;4175915;28;20110;-61
2022/04/20 03:43:26;;;;;;;8.67;2.00;;;;;;;21.38;36.46;101880.88;4182433;28;20037;-60
2022/04/20 03:45:28;;;;;;;5.50;1.77;;;;;;;21.38;36.92;101886.44;4182027;28;20090;-60
2022/04/20 03:47:29;;;;;;;9.45;2.28;;;;;;;21.33;36.52;101883.63;4182614;28;20033;-61
2022/04/20 03:49:31;;;;;;;5.30;2.28;;;;;;;21.28;36.71;101876.84;4182638;28;20090;-61
2022/04/20 03:51:36;;;;;;;5.30;1.70;;;;;;;21.39;36.83;101899.25;4182435;28;20037;-61
2022/04/20 03:53:37;;;;;;;;;;;;;;;21.35;36.70;101895.31;4182506;28;20098;-60
2022/04/20 03:55:39;;;;;;;4.25;1.65;;;;;;;21.29;36.40;101883.25;4181673;28;19943;-61
2022/04/20 03:57:41;;;;;;;4.57;2.05;;;;;;;21.41;36.74;101908.22;4182566;28;20480;-61
2022/04/20 03:59:42;;;;;;;5.80;1.80;;;;;;;21.40;36.67;101909.31;4182195;28;20033;-61
2022/04/20 04:01:44;;;;;;;5.53;1.83;;;;;;;21.36;36.75;101900.63;4181569;28;20159;-60
2022/04/20 04:03:50;;;;;;;5.20;1.80;;;;;;;21.38;36.47;101917.06;4182248;28;20032;-60
2022/04/20 04:05:56;;;;;;;4.93;1.88;;;;;;;21.37;36.32;101912.63;4180541;28;20440;-60
2022/04/20 04:07:57;;;;;;;4.95;1.75;;;;;;;21.34;36.46;101929.84;4182182;28;20041;-60
2022/04/20 04:10:01;;;;;;;5.40;1.75;;;;;;;21.34;36.55;101925.09;4182157;28;20431;-60
2022/04/20 04:12:06;;;;;;;4.28;1.50;;;;;;;21.20;36.36;101904.28;4182329;28;20464;-61
2022/04/20 04:14:11;;;;;;;3.33;1.58;;;;;;;21.34;36.23;101936.25;4181822;28;20041;-60
2022/04/20 04:16:12;;;;;;;3.92;1.73;;;;;;;21.34;36.59;101938.19;4181608;28;20389;-61
2022/04/20 04:18:13;;;;;;;3.40;1.23;;;;;;;21.33;36.41;101942.06;4182545;28;20037;-60
2022/04/20 04:20:15;;;;;;;5.32;1.70;;;;;;;21.28;36.61;101938.09;4187378;28;20098;-60
2022/04/20 04:22:16;;;;;;;5.18;1.58;;;;;;;21.31;36.53;101957.09;4181899;28;20041;-60
2022/04/20 04:24:36;;;;;;;3.88;1.52;;;;;;;21.30;36.44;101958.19;4182085;28;20041;-61
2022/04/20 04:26:41;;;;;;;4.10;2.05;;;;;;;21.28;36.46;101954.78;4181356;28;20036;-60
2022/04/20 04:28:42;;;;;;;5.97;2.30;;;;;;;21.29;36.25;101962.03;4181771;28;20044;-60
2022/04/20 04:30:44;;;;;;;3.83;1.77;;;;;;;21.28;36.48;101965.94;4181784;28;20037;-62
2022/04/20 04:32:45;;;;;;;2.75;1.40;;;;;;;21.21;36.43;101959.72;4181470;28;20114;-62
2022/04/20 04:34:46;;;;;;;4.47;1.50;;;;;;;21.28;36.51;101968.72;4181437;28;20033;-60
2022/04/20 04:36:48;;;;;;;2.90;1.40;;;;;;;21.27;36.47;101967.03;4181812;28;20106;-60
2022/04/20 04:38:49;;;;;;;3.88;1.25;;;;;;;21.28;36.24;101985.41;4181799;28;20045;-61
2022/04/20 04:40:51;;;;;;;7.13;1.70;;;;;;;21.29;36.15;101989.88;4181833;28;20041;-60
2022/04/20 04:42:57;;;;;;;2.58;1.42;;;;;;;21.28;36.41;101987.38;4180882;28;20492;-60
2022/04/20 04:48:36;;;;;;;3.70;1.92;;;;;;;21.30;36.49;101991.59;4181080;28;20443;-60
2022/04/20 04:49:42;;;;;;;2.55;1.20;;;;;;;21.28;36.23;101998.50;4182550;28;20095;-61
2022/04/20 04:51:44;;;;;;;2.10;1.38;;;;;;;21.28;36.20;101999.34;4181409;28;20059;-60
2022/04/20 04:53:45;;;;;;;3.53;1.55;;;;;;;21.24;36.41;102000.94;4181417;28;20075;-59
2022/04/20 04:55:46;;;;;;;5.38;1.50;;;;;;;21.26;36.59;102007.13;4180916;28;20094;-60
2022/04/20 04:57:48;;;;;;;4.22;1.38;;;;;;;21.26;36.40;102011.84;4181471;28;20045;-61
2022/04/20 04:59:52;;;;;;;2.30;1.20;;;;;;;21.25;36.22;102010.97;4180916;28;20078;-61
2022/04/20 05:01:54;;;;;;;5.10;1.70;;;;;;;21.17;36.08;102005.88;4181190;28;20041;-61
2022/04/20 05:03:55;;;;;;;3.40;1.50;;;;;;;21.15;36.15;102007.22;4180801;28;20098;-61
2022/04/20 05:05:57;;;;;;;2.67;1.38;;;;;;;21.20;36.36;102018.44;4180141;28;20098;-61
2022/04/20 05:07:58;;;;;;;2.28;1.33;;;;;;;21.22;36.24;102021.81;4181153;28;20103;-61
2022/04/20 05:10:00;;;;;;;6.38;1.50;;;;;;;21.21;36.16;102020.97;4181384;28;20442;-61
2022/04/20 05:12:05;;;;;;;2.75;1.02;;;;;;;21.21;36.22;102029.31;4181019;28;20434;-61
2022/04/20 05:14:06;;;;;;;2.35;1.00;;;;;;;21.21;36.06;102031.25;4181337;28;20036;-61
2022/04/20 05:16:09;;;;;;;4.78;1.63;;;;;;;21.20;36.07;102035.97;4180681;28;20415;-61
2022/04/20 05:18:10;;;;;;;3.28;1.45;;;;;;;21.20;36.13;102041.53;4181438;28;20044;-60
2022/04/20 05:20:12;;;;;;;2.28;1.10;;;;;;;21.12;36.34;102025.28;4181131;28;20524;-61
2022/04/20 05:22:13;;;;;;;4.07;1.23;;;;;;;21.18;36.26;102032.63;4180802;28;20110;-61
2022/04/20 05:24:14;;;;;;;2.95;1.38;;;;;;;21.19;36.30;102039.84;4181227;28;20049;-61
2022/04/20 05:26:16;;;;;;;3.30;1.35;;;;;;;21.18;35.89;102037.34;4180448;28;20095;-60
2022/04/20 05:28:17;;;;;;;2.03;1.20;;;;;;;21.09;36.11;102017.44;4180868;28;20056;-61
2022/04/20 05:30:18;;;;;;;3.17;1.23;;;;;;;21.17;36.34;102028.16;4181118;28;20103;-61
2022/04/20 05:32:20;;;;;;;3.72;1.30;;;;;;;21.16;35.98;102036.72;4180560;28;20041;-61
2022/04/20 05:34:23;;;;;;;1.58;1.20;;;;;;;21.15;36.07;102043.41;4180934;28;20187;-61
2022/04/20 05:36:24;;;;;;;3.28;1.00;;;;;;;21.10;36.12;102030.25;4180777;28;20106;-62
2022/04/20 05:43:07;;;;;;;1.67;1.08;;;;;;;21.14;35.98;102048.13;4165297;28;20103;-61
2022/04/20 05:45:10;;;;;;;2.35;1.00;;;;;;;21.14;36.20;102053.69;4163982;28;20037;-62
2022/04/20 05:47:12;;;;;;;1.85;1.00;;;;;;;21.13;35.57;102052.03;4164129;28;20041;-61
2022/04/20 05:49:13;;;;;;;2.28;1.10;;;;;;;21.13;35.83;102063.16;4164397;28;20038;-61
2022/04/20 05:51:18;;;;;;;2.15;1.30;;;;;;;21.12;35.92;102061.47;4164471;28;20100;-61
2022/04/20 05:53:22;;;;;;;2.33;1.57;;;;;;;21.11;36.01;102068.13;4164475;28;20095;-61
2022/04/20 05:55:23;;;;;;;1.90;1.00;;;;;;;21.11;35.96;102072.84;4166973;28;20282;-61
2022/04/20 05:57:25;;;;;;;1.85;0.95;;;;;;;21.11;36.02;102070.91;4164435;28;20341;-62
2022/04/20 05:59:29;;;;;;;1.85;1.00;;;;;;;21.11;35.96;102073.69;4163758;28;20037;-61
2022/04/20 06:01:30;;;;;;;2.90;1.27;;;;;;;21.08;35.66;102077.00;4164390;28;20045;-61
2022/04/20 06:03:32;;;;;;;1.80;1.20;;;;;;;21.11;35.67;102086.75;4163866;28;20091;-61
2022/04/20 06:05:33;;;;;;;2.75;1.05;;;;;;;20.94;35.88;102064.53;4163271;28;20042;-61
2022/04/20 06:07:37;;;;;;;3.28;1.35;;;;;;;21.10;36.16;102090.66;4163537;28;20033;-61
2022/04/20 06:09:41;;;;;;;1.17;0.88;;;;;;;21.10;35.85;102099.84;4164289;28;20558;-61
2022/04/20 06:11:46;;;;;;;2.75;0.80;;;;;;;21.10;36.00;102096.22;4163617;28;20103;-61
2022/04/20 06:13:47;;;;;;;2.35;1.33;;;;;;;21.00;35.82;102082.97;4164493;28;20041;-61
2022/04/20 06:15:48;;;;;;;1.38;1.00;;;;;;;21.08;35.90;102102.03;4178291;28;20028;-60
2022/04/20 06:17:50;;;;;;;1.65;0.90;;;;;;;21.09;35.89;102100.94;4163675;28;20041;-61
2022/04/20 06:19:51;;;;;;;1.20;0.98;;;;;;;21.10;35.93;102101.78;4164102;28;20038;-61
2022/04/20 06:21:55;;;;;;;2.25;0.98;;;;;;;21.10;35.46;102099.84;4163895;28;20037;-62
2022/04/20 06:23:58;;;;;;;3.42;0.90;;;;;;;21.09;35.59;102100.09;4164390;28;20045;-61
2022/04/20 06:26:05;;;;;;;1.13;0.82;;;;;;;21.10;35.75;102108.19;4163628;28;20038;-61
2022/04/20 06:28:06;;;;;;;1.15;0.77;;;;;;;21.13;35.59;102106.84;4164489;28;20068;-61
2022/04/20 06:30:08;;;;;;;1.90;0.77;;;;;;;21.14;35.52;102108.53;4167444;28;20045;-61
2022/04/20 06:32:09;;;;;;;2.08;0.90;;;;;;;21.13;35.71;102107.69;4167001;28;20096;-60
2022/04/20 06:34:11;;;;;;;1.67;0.88;;;;;;;21.16;35.85;102107.16;4166825;28;20127;-61
2022/04/20 06:36:15;;;;;;;1.05;0.70;;;;;;;21.09;35.51;102100.94;4166946;28;20107;-60
2022/04/20 06:38:19;;;;;;;1.45;0.70;;;;;;;21.16;35.53;102121.06;4166848;28;20464;-61
2022/04/20 06:40:20;;;;;;;0.88;0.70;;;;;;;21.20;35.83;102130.59;4166701;28;20037;-62
2022/04/20 06:42:22;;;;;;;3.42;1.02;;;;;;;21.20;35.76;102136.19;4170898;28;20086;-61
2022/04/20 06:44:23;;;;;;;1.85;0.80;;;;;;;21.22;35.80;102128.44;4183221;28;20480;-61
2022/04/20 06:46:25;;;;;;;1.17;1.00;;;;;;;21.22;35.73;102134.00;4183058;28;20033;-61
2022/04/20 06:48:27;;;;;;;1.27;0.68;;;;;;;21.21;35.69;102137.88;4183409;28;20059;-61
2022/04/20 06:50:31;;;;;;;1.25;0.77;;;;;;;21.22;35.40;102145.13;4183536;28;20365;-61
2022/04/20 06:59:31;;;;;;;1.20;0.85;;;;;;;21.26;35.45;102163.03;4183872;28;20087;-61
2022/04/20 07:01:32;;;;;;;1.00;0.80;;;;;;;21.28;35.61;102171.94;4182869;28;20462;-60
2022/04/20 07:03:35;;;;;;;1.63;0.90;;;;;;;21.29;35.76;102176.41;4183229;28;20037;-60
2022/04/20 07:05:36;;;;;;;0.63;0.63;;;;;;;21.29;35.72;102184.75;4182357;28;20439;-60
2022/04/20 07:07:38;;;;;;;0.93;0.73;;;;;;;21.29;35.49;102176.41;4182821;28;20519;-60
2022/04/20 07:09:39;;;;;;;0.95;0.47;;;;;;;21.29;35.62;102184.75;4182836;28;20484;-61
2022/04/20 07:11:41;;;;;;;1.33;0.70;;;;;;;21.30;35.77;102186.47;4183201;28;20090;-61
2022/04/20 07:13:42;;;;;;;1.02;0.70;;;;;;;21.30;35.55;102180.03;4182955;28;20100;-60
2022/04/20 07:15:46;;;;;;;1.20;0.60;;;;;;;21.17;35.20;102170.09;4182732;28;20110;-61
2022/04/20 07:17:48;;;;;;;1.17;0.70;;;;;;;21.25;35.58;102186.38;4182977;28;20044;-60
2022/04/20 07:19:49;;;;;;;0.98;0.60;;;;;;;21.09;35.32;102156.59;4182686;28;20041;-61
2022/04/20 07:21:59;;;;;;;0.98;0.70;;;;;;;21.31;35.45;102199.31;4182844;28;20040;-61
2022/04/20 07:24:00;;;;;;;2.28;0.60;;;;;;;21.31;35.70;102199.31;4182976;28;20036;-60
2022/04/20 07:26:02;;;;;;;0.98;0.50;;;;;;;21.30;35.38;102203.19;4182223;28;20473;-61
2022/04/20 07:28:07;;;;;;;0.75;0.60;;;;;;;21.32;35.67;102208.53;4182700;28;20539;-61
2022/04/20 07:30:09;;;;;;;0.70;0.57;;;;;;;21.33;35.58;102207.41;4182416;28;20037;-61
2022/04/20 07:32:10;;;;;;;0.50;0.50;;;;;;;21.33;35.69;102212.97;4182535;28;20443;-61
2022/04/20 07:34:14;;;;;;;1.42;0.63;;;;;;;21.33;35.27;102217.72;4182172;28;20045;-61
2022/04/20 07:36:16;;;;;;;1.13;0.70;;;;;;;21.33;35.70;102223.28;4182191;28;20040;-61
2022/04/20 07:38:17;;;;;;;1.20;0.60;;;;;;;21.33;35.30;102224.13;4182190;28;20273;-61
2022/04/20 07:40:18;;;;;;;1.13;0.60;;;;;;;21.30;35.42;102225.47;4181296;28;20058;-61
2022/04/20 07:42:24;;;;;;;0.55;0.50;;;;;;;21.33;35.36;102235.25;4182196;28;20040;-61
2022/04/20 07:44:25;;;;;;;;;;;;;;;21.33;35.78;102240.00;4182336;28;20075;-61
2022/04/20 07:46:29;;;;;;;0.75;0.60;;;;;;;21.38;35.24;102242.84;4182048;28;19960;-61
2022/04/20 07:48:30;;;;;;;0.60;0.57;;;;;;;21.38;35.18;102254.00;4182367;28;20029;-61
2022/04/20 07:50:31;;;;;;;0.50;0.50;;;;;;;21.36;35.22;102247.84;4182496;28;20049;-61
2022/04/20 07:52:45;;;;;;;1.67;0.77;;;;;;;21.35;35.61;102254.47;4181668;28;20099;-59
2022/04/20 07:54:46;;;;;;;0.55;0.47;;;;;;;21.27;35.46;102247.38;4182255;28;20079;-59
2022/04/20 07:56:53;;;;;;;0.60;0.60;;;;;;;21.22;35.64;102245.34;4181834;28;20037;-59
2022/04/20 07:58:54;;;;;;;0.75;0.65;;;;;;;21.28;35.35;102260.19;4181976;28;20086;-59
2022/04/20 08:00:57;;;;;;;0.75;0.60;;;;;;;21.35;35.36;102268.41;4182825;28;20090;-59
2022/04/20 08:03:11;;;;;;;1.17;0.63;;;;;;;21.35;35.53;102273.97;4181467;28;20491;-59
2022/04/20 08:05:15;;;;;;;0.75;0.50;;;;;;;21.35;35.51;102271.19;4181764;28;20036;-59
2022/04/20 08:07:19;;;;;;;1.33;0.63;;;;;;;21.36;35.60;102284.03;4181787;28;20041;-59
2022/04/20 08:09:21;;;;;;;0.73;0.50;;;;;;;21.36;35.50;102284.03;4182224;28;20041;-59
2022/04/20 08:11:22;;;;;;;0.68;0.60;;;;;;;21.36;35.87;102295.19;4182118;28;20041;-60
2022/04/20 08:15:43;;;;;;;1.38;1.25;;;;;;;21.36;35.32;102301.59;4181731;28;20094;-60
2022/04/20 08:17:45;;;;;;;1.00;0.60;;;;;;;21.36;35.81;102311.88;4181340;28;20423;-59
2022/04/20 08:19:46;;;;;;;0.70;0.60;;;;;;;21.36;35.33;102311.88;4182107;28;20037;-60
2022/04/20 08:21:48;;;;;;;0.75;0.50;;;;;;;21.35;35.41;102310.19;4181821;28;20056;-60
2022/04/20 08:23:49;;;;;;;0.50;0.47;;;;;;;21.37;35.26;102319.13;4181390;28;20048;-60
2022/04/20 08:25:50;;;;;;;0.55;0.38;;;;;;;21.36;35.65;102317.47;4180903;28;20045;-61
2022/04/20 08:27:52;;;;;;;0.32;0.30;;;;;;;21.36;35.51;102325.81;4181929;28;20140;-61
2022/04/20 08:29:53;;;;;;;1.02;0.57;;;;;;;21.35;35.45;102326.88;4176537;28;20042;-61
2022/04/20 08:31:54;;;;;;;0.52;0.50;;;;;;;21.35;35.53;102326.88;4180724;28;20045;-61
2022/04/20 08:33:56;;;;;;;0.40;0.40;;;;;;;21.35;35.50;102335.22;4181579;28;20033;-61
2022/04/20 08:36:00;;;;;;;1.25;0.60;;;;;;;21.35;35.21;102326.88;4181022;28;20550;-61
2022/04/20 08:38:01;;;;;;;0.80;0.60;;;;;;;21.35;35.41;102335.22;4181704;28;20073;-61
2022/04/20 08:40:03;;;;;;;0.75;0.43;;;;;;;21.34;35.32;102333.56;4181807;28;20045;-61
2022/04/20 08:42:07;;;;;;;0.63;0.40;;;;;;;21.27;35.48;102325.34;4180247;28;20055;-61
2022/04/20 08:44:14;;;;;;;0.80;0.43;;;;;;;21.31;35.43;102338.53;4165168;28;20042;-61
2022/04/20 08:46:17;;;;;;;0.52;0.45;;;;;;;21.34;35.34;102339.13;4168011;28;20098;-61
2022/04/20 08:48:19;;;;;;;0.45;0.40;;;;;;;21.33;35.52;102343.00;4180939;28;20037;-61
2022/04/20 08:50:23;;;;;;;1.27;0.50;;;;;;;21.31;35.50;102344.09;4180507;28;20049;-61
2022/04/20 08:52:37;;;;;;;0.82;0.55;;;;;;;21.16;35.25;102320.66;4181141;28;20045;-61
2022/04/20 08:54:39;;;;;;;0.75;0.73;;;;;;;21.34;35.00;102347.47;4181522;28;20041;-61
2022/04/20 08:59:02;;;;;;;0.60;0.43;;;;;;;21.31;34.98;102359.97;4182326;28;20086;-60
2022/04/20 09:01:08;;;;;;;0.63;0.50;;;;;;;21.33;35.28;102362.50;4181528;28;20037;-60
2022/04/20 09:03:15;;;;;;;0.38;0.38;;;;;;;21.32;35.15;102361.66;4181517;28;20041;-60
2022/04/20 09:05:17;;;;;;;2.58;0.60;;;;;;;21.30;35.34;102359.09;4180513;28;20044;-60
2022/04/20 09:07:18;;;;;;;0.80;0.60;;;;;;;21.31;34.95;102369.16;4179450;28;20049;-60
2022/04/20 09:09:29;;;;;;;0.40;0.40;;;;;;;21.31;35.40;102373.91;4165133;28;20041;-61
2022/04/20 09:11:37;;;;;;;0.82;0.50;;;;;;;21.30;35.38;102375.81;4165116;28;20041;-60
2022/04/20 09:13:47;;;;;;;0.50;0.50;;;;;;;21.29;35.04;102385.22;4164978;28;20037;-61
2022/04/20 09:15:50;;;;;;;0.85;0.60;;;;;;;21.19;35.31;102368.34;4164583;28;20107;-61
2022/04/20 09:17:52;;;;;;;0.65;0.40;;;;;;;21.27;34.90;102393.00;4164692;28;20068;-60
2022/04/20 09:19:55;;;;;;;0.40;0.40;;;;;;;21.25;35.31;102395.16;4165675;28;20041;-60
2022/04/20 09:21:57;;;;;;;0.95;0.40;;;;;;;21.23;35.14;102391.81;4165056;28;20037;-61
2022/04/20 09:24:07;;;;;;;0.93;0.60;;;;;;;21.25;35.10;102399.91;4163329;28;20586;-60
2022/04/20 09:26:15;;;;;;;0.63;0.60;;;;;;;21.28;35.10;102408.59;4164678;28;20103;-61
2022/04/20 09:28:17;;;;;;;0.80;0.68;;;;;;;21.27;34.95;102406.91;4164932;28;20041;-62
2022/04/20 09:30:21;;;;;;;0.50;0.50;;;;;;;21.28;35.30;102411.38;4165262;28;20045;-62
2022/04/20 09:32:33;;;;;;;0.70;0.40;;;;;;;21.27;35.33;102420.84;4165183;28;20087;-62
2022/04/20 09:34:53;;;;;;;0.50;0.50;;;;;;;21.15;34.82;102408.03;4164914;28;20029;-61
2022/04/20 09:36:58;;;;;;;1.40;0.40;;;;;;;21.29;34.87;102429.78;4165084;28;20045;-61
2022/04/20 09:39:01;;;;;;;0.83;0.50;;;;;;;21.28;35.04;102436.44;4164713;28;20099;-61
2022/04/20 09:41:09;;;;;;;0.43;0.43;;;;;;;21.27;34.80;102434.75;4164605;28;20733;-61
2022/04/20 09:43:18;;;;;;;0.50;0.40;;;;;;;21.27;34.86;102443.13;4163846;28;20103;-61
2022/04/20 09:45:25;;;;;;;0.40;0.40;;;;;;;21.08;34.81;102416.56;4162895;28;20088;-61
2022/04/20 09:50:03;;;;;;;0.50;0.50;;;;;;;21.08;35.05;102436.03;4165139;28;20087;-60
2022/04/20 09:52:07;;;;;;;;;;;;;;;21.23;35.35;102480.88;4164774;28;20037;-60
2022/04/20 09:54:33;;;;;;;1.00;0.50;;;;;;;21.27;34.96;102482.09;4164264;28;19917;-60